sensor_id;sensor_type;location;lat;lon;timestamp;temperature;humidity
44767;DHT22;30487;48.716;9.272;2023-08-31T00:01:40;13.80;99.90
44767;DHT22;30487;48.716;9.272;2023-08-31T00:04:06;13.80;99.90
44767;DHT22;30487;48.716;9.272;2023-08-31T00:06:40;13.70;99.90
44767;DHT22;30487;48.716;9.272;2023-08-31T00:09:06;13.80;99.90
44767;DHT22;30487;48.716;9.272;2023-08-31T00:11:35;13.80;99.90
44767;DHT22;30487;48.716;9.272;2023-08-31T00:14:00;13.80;99.90
44767;DHT22;30487;48.716;9.272;2023-08-31T00:16:26;13.70;99.90
44767;DHT22;30487;48.716;9.272;2023-08-31T00:18:52;13.70;99.90
44767;DHT22;30487;48.716;9.272;2023-08-31T00:21:18;13.70;99.90
44767;DHT22;30487;48.716;9.272;2023-08-31T00:23:44;13.70;99.90
44767;DHT22;30487;48.716;9.272;2023-08-31T00:26:09;13.70;99.90
44767;DHT22;30487;48.716;9.272;2023-08-31T00:28:35;13.80;99.90
44767;DHT22;30487;48.716;9.272;2023-08-31T00:31:02;13.80;99.90
44767;DHT22;30487;48.716;9.272;2023-08-31T00:33:29;13.80;99.90
44767;DHT22;30487;48.716;9.272;2023-08-31T00:35:54;13.80;99.90
44767;DHT22;30487;48.716;9.272;2023-08-31T00:38:21;13.70;99.90
44767;DHT22;30487;48.716;9.272;2023-08-31T00:40:47;13.70;99.90
44767;DHT22;30487;48.716;9.272;2023-08-31T00:43:15;13.70;99.90
44767;DHT22;30487;48.716;9.272;2023-08-31T00:45:41;13.60;99.90
44767;DHT22;30487;48.716;9.272;2023-08-31T00:48:08;13.60;99.90
44767;DHT22;30487;48.716;9.272;2023-08-31T00:50:34;13.60;99.90
44767;DHT22;30487;48.716;9.272;2023-08-31T00:53:00;13.60;99.90
44767;DHT22;30487;48.716;9.272;2023-08-31T00:55:25;13.50;99.90
44767;DHT22;30487;48.716;9.272;2023-08-31T00:57:52;13.50;99.90
44767;DHT22;30487;48.716;9.272;2023-08-31T01:00:18;13.50;99.90
44767;DHT22;30487;48.716;9.272;2023-08-31T01:02:47;13.50;99.90
44767;DHT22;30487;48.716;9.272;2023-08-31T01:08:04;13.50;99.90
44767;DHT22;30487;48.716;9.272;2023-08-31T01:13:11;13.50;99.90
44767;DHT22;30487;48.716;9.272;2023-08-31T01:15:39;13.50;99.90
44767;DHT22;30487;48.716;9.272;2023-08-31T01:18:07;13.40;99.90
44767;DHT22;30487;48.716;9.272;2023-08-31T01:20:44;13.40;99.90
44767;DHT22;30487;48.716;9.272;2023-08-31T01:23:18;13.40;99.90
44767;DHT22;30487;48.716;9.272;2023-08-31T01:25:45;13.30;99.90
44767;DHT22;30487;48.716;9.272;2023-08-31T01:28:13;13.20;99.90
44767;DHT22;30487;48.716;9.272;2023-08-31T01:30:39;13.20;99.90
44767;DHT22;30487;48.716;9.272;2023-08-31T01:33:04;13.20;99.90
44767;DHT22;30487;48.716;9.272;2023-08-31T01:35:40;13.20;99.90
44767;DHT22;30487;48.716;9.272;2023-08-31T01:38:07;13.20;99.90
44767;DHT22;30487;48.716;9.272;2023-08-31T01:40:38;13.10;99.90
44767;DHT22;30487;48.716;9.272;2023-08-31T01:43:06;13.10;99.90
44767;DHT22;30487;48.716;9.272;2023-08-31T01:45:33;13.10;99.90
44767;DHT22;30487;48.716;9.272;2023-08-31T01:47:59;13.10;99.90
44767;DHT22;30487;48.716;9.272;2023-08-31T01:50:25;13.00;99.90
44767;DHT22;30487;48.716;9.272;2023-08-31T01:52:51;13.00;99.90
44767;DHT22;30487;48.716;9.272;2023-08-31T01:55:18;13.00;99.90
44767;DHT22;30487;48.716;9.272;2023-08-31T01:57:44;13.00;99.90
44767;DHT22;30487;48.716;9.272;2023-08-31T02:00:10;13.00;99.90
44767;DHT22;30487;48.716;9.272;2023-08-31T02:02:36;13.00;99.90
44767;DHT22;30487;48.716;9.272;2023-08-31T02:05:02;13.00;99.90
44767;DHT22;30487;48.716;9.272;2023-08-31T02:07:29;12.90;99.90
44767;DHT22;30487;48.716;9.272;2023-08-31T02:09:55;12.90;99.90
44767;DHT22;30487;48.716;9.272;2023-08-31T02:12:21;12.90;99.90
44767;DHT22;30487;48.716;9.272;2023-08-31T02:14:46;12.80;99.90
44767;DHT22;30487;48.716;9.272;2023-08-31T02:17:12;12.90;99.90
44767;DHT22;30487;48.716;9.272;2023-08-31T02:19:38;12.90;99.90
44767;DHT22;30487;48.716;9.272;2023-08-31T02:22:03;12.80;99.90
44767;DHT22;30487;48.716;9.272;2023-08-31T02:24:29;12.80;99.90
44767;DHT22;30487;48.716;9.272;2023-08-31T02:26:56;12.80;99.90
44767;DHT22;30487;48.716;9.272;2023-08-31T02:29:21;12.70;99.90
44767;DHT22;30487;48.716;9.272;2023-08-31T02:31:47;12.70;99.90
44767;DHT22;30487;48.716;9.272;2023-08-31T02:34:12;12.80;99.90
44767;DHT22;30487;48.716;9.272;2023-08-31T02:36:38;12.80;99.90
44767;DHT22;30487;48.716;9.272;2023-08-31T02:39:04;12.80;99.90
44767;DHT22;30487;48.716;9.272;2023-08-31T02:41:29;12.80;99.90
44767;DHT22;30487;48.716;9.272;2023-08-31T02:43:55;12.70;99.90
44767;DHT22;30487;48.716;9.272;2023-08-31T02:46:21;12.70;99.90
44767;DHT22;30487;48.716;9.272;2023-08-31T02:48:46;12.80;99.90
44767;DHT22;30487;48.716;9.272;2023-08-31T02:51:13;12.80;99.90
44767;DHT22;30487;48.716;9.272;2023-08-31T02:53:38;12.80;99.90
44767;DHT22;30487;48.716;9.272;2023-08-31T02:56:04;12.70;99.90
44767;DHT22;30487;48.716;9.272;2023-08-31T02:58:29;12.70;99.90
44767;DHT22;30487;48.716;9.272;2023-08-31T03:00:55;12.70;99.90
44767;DHT22;30487;48.716;9.272;2023-08-31T03:03:21;12.70;99.90
44767;DHT22;30487;48.716;9.272;2023-08-31T03:05:47;12.70;99.90
44767;DHT22;30487;48.716;9.272;2023-08-31T03:08:13;12.70;99.90
44767;DHT22;30487;48.716;9.272;2023-08-31T03:10:40;12.70;99.90
44767;DHT22;30487;48.716;9.272;2023-08-31T03:13:05;12.60;99.90
44767;DHT22;30487;48.716;9.272;2023-08-31T03:15:34;12.70;99.90
44767;DHT22;30487;48.716;9.272;2023-08-31T03:18:00;12.70;99.90
44767;DHT22;30487;48.716;9.272;2023-08-31T03:20:25;12.60;99.90
44767;DHT22;30487;48.716;9.272;2023-08-31T03:22:51;12.60;99.90
44767;DHT22;30487;48.716;9.272;2023-08-31T03:25:17;12.70;99.90
44767;DHT22;30487;48.716;9.272;2023-08-31T03:27:42;12.70;99.90
44767;DHT22;30487;48.716;9.272;2023-08-31T03:30:08;12.60;99.90
44767;DHT22;30487;48.716;9.272;2023-08-31T03:32:34;12.60;99.90
44767;DHT22;30487;48.716;9.272;2023-08-31T03:35:02;12.60;99.90
44767;DHT22;30487;48.716;9.272;2023-08-31T03:37:29;12.70;99.90
44767;DHT22;30487;48.716;9.272;2023-08-31T03:39:54;12.70;99.90
44767;DHT22;30487;48.716;9.272;2023-08-31T03:42:20;12.70;99.90
44767;DHT22;30487;48.716;9.272;2023-08-31T03:44:45;12.60;99.90
44767;DHT22;30487;48.716;9.272;2023-08-31T03:47:11;12.60;99.90
44767;DHT22;30487;48.716;9.272;2023-08-31T03:49:36;12.50;99.90
44767;DHT22;30487;48.716;9.272;2023-08-31T03:52:02;12.60;99.90
44767;DHT22;30487;48.716;9.272;2023-08-31T03:54:28;12.60;99.90
44767;DHT22;30487;48.716;9.272;2023-08-31T03:56:53;12.50;99.90
44767;DHT22;30487;48.716;9.272;2023-08-31T03:59:19;12.60;99.90
44767;DHT22;30487;48.716;9.272;2023-08-31T04:01:44;12.60;99.90
44767;DHT22;30487;48.716;9.272;2023-08-31T04:04:10;12.60;99.90
44767;DHT22;30487;48.716;9.272;2023-08-31T04:06:35;12.50;99.90
44767;DHT22;30487;48.716;9.272;2023-08-31T04:09:01;12.50;99.90
44767;DHT22;30487;48.716;9.272;2023-08-31T04:11:27;12.50;99.90
44767;DHT22;30487;48.716;9.272;2023-08-31T04:13:52;12.50;99.90
44767;DHT22;30487;48.716;9.272;2023-08-31T04:16:18;12.50;99.90
44767;DHT22;30487;48.716;9.272;2023-08-31T04:18:44;12.50;99.90
44767;DHT22;30487;48.716;9.272;2023-08-31T04:21:13;12.40;99.90
44767;DHT22;30487;48.716;9.272;2023-08-31T04:23:38;12.50;99.90
44767;DHT22;30487;48.716;9.272;2023-08-31T04:26:11;12.60;99.90
44767;DHT22;30487;48.716;9.272;2023-08-31T04:28:41;12.50;99.90
44767;DHT22;30487;48.716;9.272;2023-08-31T04:31:08;12.50;99.90
44767;DHT22;30487;48.716;9.272;2023-08-31T04:33:38;12.50;99.90
44767;DHT22;30487;48.716;9.272;2023-08-31T04:36:06;12.50;99.90
44767;DHT22;30487;48.716;9.272;2023-08-31T04:38:33;12.50;99.90
44767;DHT22;30487;48.716;9.272;2023-08-31T04:40:59;12.50;99.90
44767;DHT22;30487;48.716;9.272;2023-08-31T04:43:26;12.40;99.90
44767;DHT22;30487;48.716;9.272;2023-08-31T04:45:52;12.50;99.90
44767;DHT22;30487;48.716;9.272;2023-08-31T04:48:18;12.40;99.90
44767;DHT22;30487;48.716;9.272;2023-08-31T04:50:43;12.40;99.90
44767;DHT22;30487;48.716;9.272;2023-08-31T04:53:09;12.40;99.90
44767;DHT22;30487;48.716;9.272;2023-08-31T04:55:35;12.40;99.90
44767;DHT22;30487;48.716;9.272;2023-08-31T04:58:00;12.40;99.90
44767;DHT22;30487;48.716;9.272;2023-08-31T05:00:26;12.40;99.90
44767;DHT22;30487;48.716;9.272;2023-08-31T05:02:51;12.40;99.90
44767;DHT22;30487;48.716;9.272;2023-08-31T05:05:17;12.50;99.90
44767;DHT22;30487;48.716;9.272;2023-08-31T05:07:44;12.50;99.90
44767;DHT22;30487;48.716;9.272;2023-08-31T05:10:09;12.60;99.90
44767;DHT22;30487;48.716;9.272;2023-08-31T05:12:35;12.60;99.90
44767;DHT22;30487;48.716;9.272;2023-08-31T05:15:00;12.60;99.90
44767;DHT22;30487;48.716;9.272;2023-08-31T05:17:26;12.50;99.90
44767;DHT22;30487;48.716;9.272;2023-08-31T05:19:52;12.50;99.90
44767;DHT22;30487;48.716;9.272;2023-08-31T05:22:17;12.60;99.90
44767;DHT22;30487;48.716;9.272;2023-08-31T05:24:43;12.50;99.90
44767;DHT22;30487;48.716;9.272;2023-08-31T05:27:08;12.50;99.90
44767;DHT22;30487;48.716;9.272;2023-08-31T05:29:34;12.60;99.90
44767;DHT22;30487;48.716;9.272;2023-08-31T05:31:59;12.60;99.90
44767;DHT22;30487;48.716;9.272;2023-08-31T05:34:25;12.60;99.90
44767;DHT22;30487;48.716;9.272;2023-08-31T05:36:51;12.60;99.90
44767;DHT22;30487;48.716;9.272;2023-08-31T05:39:17;12.70;99.90
44767;DHT22;30487;48.716;9.272;2023-08-31T05:41:43;12.70;99.90
44767;DHT22;30487;48.716;9.272;2023-08-31T05:44:10;12.70;99.90
44767;DHT22;30487;48.716;9.272;2023-08-31T05:46:35;12.80;99.90
44767;DHT22;30487;48.716;9.272;2023-08-31T05:49:01;12.80;99.90
44767;DHT22;30487;48.716;9.272;2023-08-31T05:51:27;12.80;99.90
44767;DHT22;30487;48.716;9.272;2023-08-31T05:53:53;12.90;99.90
44767;DHT22;30487;48.716;9.272;2023-08-31T05:56:21;12.90;99.90
44767;DHT22;30487;48.716;9.272;2023-08-31T05:58:47;12.90;99.90
44767;DHT22;30487;48.716;9.272;2023-08-31T06:01:13;13.00;99.90
44767;DHT22;30487;48.716;9.272;2023-08-31T06:03:38;13.00;99.90
44767;DHT22;30487;48.716;9.272;2023-08-31T06:06:04;13.00;99.90
44767;DHT22;30487;48.716;9.272;2023-08-31T06:08:29;13.00;99.90
44767;DHT22;30487;48.716;9.272;2023-08-31T06:10:58;13.00;99.90
44767;DHT22;30487;48.716;9.272;2023-08-31T06:13:24;13.00;99.90
44767;DHT22;30487;48.716;9.272;2023-08-31T06:15:50;13.10;99.90
44767;DHT22;30487;48.716;9.272;2023-08-31T06:18:15;13.10;99.90
44767;DHT22;30487;48.716;9.272;2023-08-31T06:20:41;13.20;99.90
44767;DHT22;30487;48.716;9.272;2023-08-31T06:23:06;13.20;99.90
44767;DHT22;30487;48.716;9.272;2023-08-31T06:25:32;13.20;99.90
44767;DHT22;30487;48.716;9.272;2023-08-31T06:27:57;13.30;99.90
44767;DHT22;30487;48.716;9.272;2023-08-31T06:30:24;13.30;99.90
44767;DHT22;30487;48.716;9.272;2023-08-31T06:32:49;13.30;99.90
44767;DHT22;30487;48.716;9.272;2023-08-31T06:35:15;13.40;99.90
44767;DHT22;30487;48.716;9.272;2023-08-31T06:37:42;13.40;99.90
44767;DHT22;30487;48.716;9.272;2023-08-31T06:40:08;13.40;99.90
44767;DHT22;30487;48.716;9.272;2023-08-31T06:42:37;13.50;99.90
44767;DHT22;30487;48.716;9.272;2023-08-31T06:45:04;13.50;99.90
44767;DHT22;30487;48.716;9.272;2023-08-31T06:47:30;13.50;99.90
44767;DHT22;30487;48.716;9.272;2023-08-31T06:49:56;13.50;99.90
44767;DHT22;30487;48.716;9.272;2023-08-31T06:52:23;13.50;99.90
44767;DHT22;30487;48.716;9.272;2023-08-31T06:54:49;13.50;99.90
44767;DHT22;30487;48.716;9.272;2023-08-31T06:57:15;13.70;99.90
44767;DHT22;30487;48.716;9.272;2023-08-31T06:59:40;13.70;99.90
44767;DHT22;30487;48.716;9.272;2023-08-31T07:02:06;13.70;99.90
44767;DHT22;30487;48.716;9.272;2023-08-31T07:04:32;13.80;99.90
44767;DHT22;30487;48.716;9.272;2023-08-31T07:06:57;14.00;99.90
44767;DHT22;30487;48.716;9.272;2023-08-31T07:09:23;14.00;99.90
44767;DHT22;30487;48.716;9.272;2023-08-31T07:11:48;14.10;99.90
44767;DHT22;30487;48.716;9.272;2023-08-31T07:14:14;14.10;99.90
44767;DHT22;30487;48.716;9.272;2023-08-31T07:16:40;14.40;99.90
44767;DHT22;30487;48.716;9.272;2023-08-31T07:19:05;14.60;99.90
44767;DHT22;30487;48.716;9.272;2023-08-31T07:21:31;14.80;99.90
44767;DHT22;30487;48.716;9.272;2023-08-31T07:23:56;15.10;99.90
44767;DHT22;30487;48.716;9.272;2023-08-31T07:26:22;15.30;99.90
44767;DHT22;30487;48.716;9.272;2023-08-31T07:28:48;15.50;99.90
44767;DHT22;30487;48.716;9.272;2023-08-31T07:31:14;15.60;99.90
44767;DHT22;30487;48.716;9.272;2023-08-31T07:33:40;15.70;99.90
44767;DHT22;30487;48.716;9.272;2023-08-31T07:36:06;15.70;99.90
44767;DHT22;30487;48.716;9.272;2023-08-31T07:38:32;15.80;99.90
44767;DHT22;30487;48.716;9.272;2023-08-31T07:40:58;15.90;99.90
44767;DHT22;30487;48.716;9.272;2023-08-31T07:43:25;16.00;99.90
44767;DHT22;30487;48.716;9.272;2023-08-31T07:45:52;16.00;99.90
44767;DHT22;30487;48.716;9.272;2023-08-31T07:48:17;16.10;99.90
44767;DHT22;30487;48.716;9.272;2023-08-31T07:50:43;16.20;99.90
44767;DHT22;30487;48.716;9.272;2023-08-31T07:53:09;16.30;99.90
44767;DHT22;30487;48.716;9.272;2023-08-31T07:55:34;16.40;99.90
44767;DHT22;30487;48.716;9.272;2023-08-31T07:58:01;16.60;99.90
44767;DHT22;30487;48.716;9.272;2023-08-31T08:00:27;16.60;99.90
44767;DHT22;30487;48.716;9.272;2023-08-31T08:02:52;16.80;99.90
44767;DHT22;30487;48.716;9.272;2023-08-31T08:05:18;17.00;99.90
44767;DHT22;30487;48.716;9.272;2023-08-31T08:07:44;17.30;99.90
44767;DHT22;30487;48.716;9.272;2023-08-31T08:10:10;17.50;99.90
44767;DHT22;30487;48.716;9.272;2023-08-31T08:12:40;17.50;99.90
44767;DHT22;30487;48.716;9.272;2023-08-31T08:15:09;17.80;99.90
44767;DHT22;30487;48.716;9.272;2023-08-31T08:17:34;18.00;99.90
44767;DHT22;30487;48.716;9.272;2023-08-31T08:20:00;18.20;99.90
44767;DHT22;30487;48.716;9.272;2023-08-31T08:22:26;18.60;99.90
44767;DHT22;30487;48.716;9.272;2023-08-31T08:24:51;18.70;99.90
44767;DHT22;30487;48.716;9.272;2023-08-31T08:27:17;18.80;99.90
44767;DHT22;30487;48.716;9.272;2023-08-31T08:29:45;18.80;99.90
44767;DHT22;30487;48.716;9.272;2023-08-31T08:32:10;18.80;99.90
44767;DHT22;30487;48.716;9.272;2023-08-31T08:34:36;18.90;99.90
44767;DHT22;30487;48.716;9.272;2023-08-31T08:37:02;19.10;99.90
44767;DHT22;30487;48.716;9.272;2023-08-31T08:39:29;18.90;99.90
44767;DHT22;30487;48.716;9.272;2023-08-31T08:41:58;19.10;99.90
44767;DHT22;30487;48.716;9.272;2023-08-31T08:44:32;19.00;98.90
44767;DHT22;30487;48.716;9.272;2023-08-31T08:46:59;18.80;98.90
44767;DHT22;30487;48.716;9.272;2023-08-31T08:49:26;18.60;99.60
44767;DHT22;30487;48.716;9.272;2023-08-31T08:51:53;18.70;99.90
44767;DHT22;30487;48.716;9.272;2023-08-31T08:54:18;18.70;99.90
44767;DHT22;30487;48.716;9.272;2023-08-31T08:56:45;18.60;99.90
44767;DHT22;30487;48.716;9.272;2023-08-31T08:59:10;18.50;99.90
44767;DHT22;30487;48.716;9.272;2023-08-31T09:01:38;18.30;99.90
44767;DHT22;30487;48.716;9.272;2023-08-31T09:04:04;18.30;99.90
44767;DHT22;30487;48.716;9.272;2023-08-31T09:06:30;18.10;99.90
44767;DHT22;30487;48.716;9.272;2023-08-31T09:08:56;18.00;99.90
44767;DHT22;30487;48.716;9.272;2023-08-31T09:11:23;17.90;99.90
44767;DHT22;30487;48.716;9.272;2023-08-31T09:13:49;17.60;99.90
44767;DHT22;30487;48.716;9.272;2023-08-31T09:16:29;17.30;99.90
44767;DHT22;30487;48.716;9.272;2023-08-31T09:18:56;17.20;99.90
44767;DHT22;30487;48.716;9.272;2023-08-31T09:21:22;17.00;99.90
44767;DHT22;30487;48.716;9.272;2023-08-31T09:23:56;17.10;99.90
44767;DHT22;30487;48.716;9.272;2023-08-31T09:26:23;17.00;99.90
44767;DHT22;30487;48.716;9.272;2023-08-31T09:28:49;17.20;99.90
44767;DHT22;30487;48.716;9.272;2023-08-31T09:31:14;17.50;99.90
44767;DHT22;30487;48.716;9.272;2023-08-31T09:33:50;17.70;99.90
44767;DHT22;30487;48.716;9.272;2023-08-31T09:36:16;18.00;99.90
44767;DHT22;30487;48.716;9.272;2023-08-31T09:38:42;18.40;99.90
44767;DHT22;30487;48.716;9.272;2023-08-31T09:41:12;18.40;99.10
44767;DHT22;30487;48.716;9.272;2023-08-31T09:43:37;18.40;99.30
44767;DHT22;30487;48.716;9.272;2023-08-31T09:46:04;18.50;98.80
44767;DHT22;30487;48.716;9.272;2023-08-31T09:48:30;18.60;99.90
44767;DHT22;30487;48.716;9.272;2023-08-31T09:50:57;18.90;99.50
44767;DHT22;30487;48.716;9.272;2023-08-31T09:53:29;19.20;98.40
44767;DHT22;30487;48.716;9.272;2023-08-31T09:55:56;19.00;97.80
44767;DHT22;30487;48.716;9.272;2023-08-31T09:58:22;18.60;97.10
44767;DHT22;30487;48.716;9.272;2023-08-31T10:00:49;18.80;97.80
44767;DHT22;30487;48.716;9.272;2023-08-31T10:03:15;19.10;98.30
44767;DHT22;30487;48.716;9.272;2023-08-31T10:05:43;18.90;95.30
44767;DHT22;30487;48.716;9.272;2023-08-31T10:08:10;18.60;93.40
44767;DHT22;30487;48.716;9.272;2023-08-31T10:10:37;18.30;94.80
44767;DHT22;30487;48.716;9.272;2023-08-31T10:13:05;18.10;94.90
44767;DHT22;30487;48.716;9.272;2023-08-31T10:15:32;18.40;94.60
44767;DHT22;30487;48.716;9.272;2023-08-31T10:18:04;19.10;94.40
44767;DHT22;30487;48.716;9.272;2023-08-31T10:20:31;19.30;92.80
44767;DHT22;30487;48.716;9.272;2023-08-31T10:23:07;19.20;92.60
44767;DHT22;30487;48.716;9.272;2023-08-31T10:28:24;18.60;93.80
44767;DHT22;30487;48.716;9.272;2023-08-31T10:31:03;18.90;94.60
44767;DHT22;30487;48.716;9.272;2023-08-31T10:33:43;19.90;92.70
44767;DHT22;30487;48.716;9.272;2023-08-31T10:36:14;20.50;93.10
44767;DHT22;30487;48.716;9.272;2023-08-31T10:38:40;21.30;91.50
44767;DHT22;30487;48.716;9.272;2023-08-31T10:46:24;20.20;91.70
44767;DHT22;30487;48.716;9.272;2023-08-31T10:48:55;19.70;91.10
44767;DHT22;30487;48.716;9.272;2023-08-31T10:51:25;19.90;92.20
44767;DHT22;30487;48.716;9.272;2023-08-31T10:53:52;20.20;91.90
44767;DHT22;30487;48.716;9.272;2023-08-31T10:56:18;20.60;91.40
44767;DHT22;30487;48.716;9.272;2023-08-31T10:58:58;20.00;91.20
44767;DHT22;30487;48.716;9.272;2023-08-31T11:01:56;19.50;90.70
44767;DHT22;30487;48.716;9.272;2023-08-31T11:04:26;19.20;91.00
44767;DHT22;30487;48.716;9.272;2023-08-31T11:07:18;19.20;92.60
44767;DHT22;30487;48.716;9.272;2023-08-31T11:09:45;19.60;93.20
44767;DHT22;30487;48.716;9.272;2023-08-31T11:12:11;20.20;92.40
44767;DHT22;30487;48.716;9.272;2023-08-31T11:14:37;19.80;90.40
44767;DHT22;30487;48.716;9.272;2023-08-31T11:17:04;19.50;91.10
44767;DHT22;30487;48.716;9.272;2023-08-31T11:19:31;19.20;91.50
44767;DHT22;30487;48.716;9.272;2023-08-31T11:21:57;19.00;91.60
44767;DHT22;30487;48.716;9.272;2023-08-31T11:24:23;18.90;93.10
44767;DHT22;30487;48.716;9.272;2023-08-31T11:26:52;19.10;93.40
44767;DHT22;30487;48.716;9.272;2023-08-31T11:29:18;19.10;92.70
44767;DHT22;30487;48.716;9.272;2023-08-31T11:31:44;19.60;93.00
44767;DHT22;30487;48.716;9.272;2023-08-31T11:34:14;19.80;92.10
44767;DHT22;30487;48.716;9.272;2023-08-31T11:36:44;20.00;92.00
44767;DHT22;30487;48.716;9.272;2023-08-31T11:39:14;20.50;92.30
44767;DHT22;30487;48.716;9.272;2023-08-31T11:41:41;21.30;89.30
44767;DHT22;30487;48.716;9.272;2023-08-31T11:44:08;21.20;87.80
44767;DHT22;30487;48.716;9.272;2023-08-31T11:46:37;20.70;87.30
44767;DHT22;30487;48.716;9.272;2023-08-31T11:49:04;20.30;90.50
44767;DHT22;30487;48.716;9.272;2023-08-31T11:51:33;20.10;90.50
44767;DHT22;30487;48.716;9.272;2023-08-31T11:54:01;19.90;90.50
44767;DHT22;30487;48.716;9.272;2023-08-31T11:56:38;20.00;90.70
44767;DHT22;30487;48.716;9.272;2023-08-31T11:59:07;20.90;90.50
44767;DHT22;30487;48.716;9.272;2023-08-31T12:01:33;21.80;88.60
44767;DHT22;30487;48.716;9.272;2023-08-31T12:04:10;22.00;86.70
44767;DHT22;30487;48.716;9.272;2023-08-31T12:06:35;21.90;85.50
44767;DHT22;30487;48.716;9.272;2023-08-31T12:09:01;22.00;85.90
44767;DHT22;30487;48.716;9.272;2023-08-31T12:11:29;21.90;83.60
44767;DHT22;30487;48.716;9.272;2023-08-31T12:14:00;21.80;85.00
44767;DHT22;30487;48.716;9.272;2023-08-31T12:16:34;21.70;86.80
44767;DHT22;30487;48.716;9.272;2023-08-31T12:19:02;21.20;86.10
44767;DHT22;30487;48.716;9.272;2023-08-31T12:21:30;20.80;86.70
44767;DHT22;30487;48.716;9.272;2023-08-31T12:23:57;20.70;88.30
44767;DHT22;30487;48.716;9.272;2023-08-31T12:26:24;21.30;86.40
44767;DHT22;30487;48.716;9.272;2023-08-31T12:28:49;21.90;83.80
44767;DHT22;30487;48.716;9.272;2023-08-31T12:31:15;21.70;83.90
44767;DHT22;30487;48.716;9.272;2023-08-31T12:33:40;21.40;86.60
44767;DHT22;30487;48.716;9.272;2023-08-31T12:36:06;21.00;86.20
44767;DHT22;30487;48.716;9.272;2023-08-31T12:38:31;20.50;84.90
44767;DHT22;30487;48.716;9.272;2023-08-31T12:40:57;20.30;87.40
44767;DHT22;30487;48.716;9.272;2023-08-31T12:43:22;20.10;86.90
44767;DHT22;30487;48.716;9.272;2023-08-31T12:45:48;19.90;88.50
44767;DHT22;30487;48.716;9.272;2023-08-31T12:48:13;19.70;90.20
44767;DHT22;30487;48.716;9.272;2023-08-31T12:50:39;19.70;88.30
44767;DHT22;30487;48.716;9.272;2023-08-31T12:53:04;19.70;90.50
44767;DHT22;30487;48.716;9.272;2023-08-31T12:55:30;19.80;90.80
44767;DHT22;30487;48.716;9.272;2023-08-31T12:57:56;20.00;91.60
44767;DHT22;30487;48.716;9.272;2023-08-31T13:00:21;20.30;90.80
44767;DHT22;30487;48.716;9.272;2023-08-31T13:02:47;20.30;90.10
44767;DHT22;30487;48.716;9.272;2023-08-31T13:05:13;20.30;90.00
44767;DHT22;30487;48.716;9.272;2023-08-31T13:07:38;20.20;88.40
44767;DHT22;30487;48.716;9.272;2023-08-31T13:10:05;20.00;87.80
44767;DHT22;30487;48.716;9.272;2023-08-31T13:12:31;19.90;88.70
44767;DHT22;30487;48.716;9.272;2023-08-31T13:14:57;19.80;88.10
44767;DHT22;30487;48.716;9.272;2023-08-31T13:17:23;19.80;89.10
44767;DHT22;30487;48.716;9.272;2023-08-31T13:19:52;19.70;89.80
44767;DHT22;30487;48.716;9.272;2023-08-31T13:22:18;19.40;90.10
44767;DHT22;30487;48.716;9.272;2023-08-31T13:24:44;19.40;90.30
44767;DHT22;30487;48.716;9.272;2023-08-31T13:27:09;19.20;90.10
44767;DHT22;30487;48.716;9.272;2023-08-31T13:29:35;19.20;90.40
44767;DHT22;30487;48.716;9.272;2023-08-31T13:32:01;19.00;91.20
44767;DHT22;30487;48.716;9.272;2023-08-31T13:34:26;19.00;91.50
44767;DHT22;30487;48.716;9.272;2023-08-31T13:36:52;19.00;91.30
44767;DHT22;30487;48.716;9.272;2023-08-31T13:39:17;18.90;91.90
44767;DHT22;30487;48.716;9.272;2023-08-31T13:41:43;18.90;92.90
44767;DHT22;30487;48.716;9.272;2023-08-31T13:44:11;19.00;92.40
44767;DHT22;30487;48.716;9.272;2023-08-31T13:46:36;19.10;92.20
44767;DHT22;30487;48.716;9.272;2023-08-31T13:49:02;19.70;91.90
44767;DHT22;30487;48.716;9.272;2023-08-31T13:51:28;20.60;91.20
44767;DHT22;30487;48.716;9.272;2023-08-31T13:53:53;21.20;90.10
44767;DHT22;30487;48.716;9.272;2023-08-31T13:56:20;21.80;88.90
44767;DHT22;30487;48.716;9.272;2023-08-31T13:58:45;22.00;88.20
44767;DHT22;30487;48.716;9.272;2023-08-31T14:01:11;22.50;85.80
44767;DHT22;30487;48.716;9.272;2023-08-31T14:03:38;23.10;85.70
44767;DHT22;30487;48.716;9.272;2023-08-31T14:06:04;23.70;85.30
44767;DHT22;30487;48.716;9.272;2023-08-31T14:08:29;23.80;84.80
44767;DHT22;30487;48.716;9.272;2023-08-31T14:10:55;23.30;82.60
44767;DHT22;30487;48.716;9.272;2023-08-31T14:13:21;22.60;84.50
44767;DHT22;30487;48.716;9.272;2023-08-31T14:15:47;21.90;87.60
44767;DHT22;30487;48.716;9.272;2023-08-31T14:18:13;21.30;87.80
44767;DHT22;30487;48.716;9.272;2023-08-31T14:20:39;20.80;89.20
44767;DHT22;30487;48.716;9.272;2023-08-31T14:23:05;20.40;89.10
44767;DHT22;30487;48.716;9.272;2023-08-31T14:25:35;20.20;90.40
44767;DHT22;30487;48.716;9.272;2023-08-31T14:28:01;20.00;90.70
44767;DHT22;30487;48.716;9.272;2023-08-31T14:30:28;19.80;90.80
44767;DHT22;30487;48.716;9.272;2023-08-31T14:32:53;19.70;91.40
44767;DHT22;30487;48.716;9.272;2023-08-31T14:35:19;19.50;91.40
44767;DHT22;30487;48.716;9.272;2023-08-31T14:37:45;19.50;91.40
44767;DHT22;30487;48.716;9.272;2023-08-31T14:40:10;19.60;91.70
44767;DHT22;30487;48.716;9.272;2023-08-31T14:42:36;20.00;91.80
44767;DHT22;30487;48.716;9.272;2023-08-31T14:45:02;20.30;91.50
44767;DHT22;30487;48.716;9.272;2023-08-31T14:47:28;20.40;91.50
44767;DHT22;30487;48.716;9.272;2023-08-31T14:49:55;20.40;91.70
44767;DHT22;30487;48.716;9.272;2023-08-31T14:52:21;20.40;91.10
44767;DHT22;30487;48.716;9.272;2023-08-31T14:54:46;20.40;91.80
44767;DHT22;30487;48.716;9.272;2023-08-31T14:57:12;20.60;92.10
44767;DHT22;30487;48.716;9.272;2023-08-31T14:59:37;20.60;91.10
44767;DHT22;30487;48.716;9.272;2023-08-31T15:02:03;20.70;92.00
44767;DHT22;30487;48.716;9.272;2023-08-31T15:04:31;20.80;91.60
44767;DHT22;30487;48.716;9.272;2023-08-31T15:06:57;20.50;90.70
44767;DHT22;30487;48.716;9.272;2023-08-31T15:09:23;20.30;90.10
44767;DHT22;30487;48.716;9.272;2023-08-31T15:11:49;20.20;91.10
44767;DHT22;30487;48.716;9.272;2023-08-31T15:14:15;19.90;90.70
44767;DHT22;30487;48.716;9.272;2023-08-31T15:16:40;19.70;90.50
44767;DHT22;30487;48.716;9.272;2023-08-31T15:19:06;19.50;91.20
44767;DHT22;30487;48.716;9.272;2023-08-31T15:21:32;19.40;92.10
44767;DHT22;30487;48.716;9.272;2023-08-31T15:23:58;19.30;92.00
44767;DHT22;30487;48.716;9.272;2023-08-31T15:26:23;19.30;92.50
44767;DHT22;30487;48.716;9.272;2023-08-31T15:28:50;19.30;92.20
44767;DHT22;30487;48.716;9.272;2023-08-31T15:31:16;19.30;93.10
44767;DHT22;30487;48.716;9.272;2023-08-31T15:33:42;19.30;92.90
44767;DHT22;30487;48.716;9.272;2023-08-31T15:36:09;19.40;92.80
44767;DHT22;30487;48.716;9.272;2023-08-31T15:38:36;19.30;92.60
44767;DHT22;30487;48.716;9.272;2023-08-31T15:41:05;19.20;92.50